sensor_id;sensor_type;location;lat;lon;timestamp;pressure;altitude;pressure_sealevel;temperature;humidity
54816;BME280;40715;55.752;37.884;2023-03-03T00:00:12;97555.91;;;27.50;21.86
54816;BME280;40715;55.752;37.884;2023-03-03T00:02:39;97571.34;;;27.56;21.49
54816;BME280;40715;55.752;37.884;2023-03-03T00:05:07;97562.41;;;27.55;21.68
54816;BME280;40715;55.752;37.884;2023-03-03T00:07:34;97562.22;;;27.57;21.63
54816;BME280;40715;55.752;37.884;2023-03-03T00:10:01;97549.50;;;27.58;21.59
54816;BME280;40715;55.752;37.884;2023-03-03T00:12:30;97539.09;;;27.54;21.36
54816;BME280;40715;55.752;37.884;2023-03-03T00:14:57;97543.47;;;27.55;21.70
54816;BME280;40715;55.752;37.884;2023-03-03T00:17:29;97538.34;;;27.61;21.75
54816;BME280;40715;55.752;37.884;2023-03-03T00:19:56;97541.03;;;27.61;21.63
54816;BME280;40715;55.752;37.884;2023-03-03T00:22:29;97538.34;;;27.61;21.51
54816;BME280;40715;55.752;37.884;2023-03-03T00:25:35;97540.13;;;27.75;21.57
54816;BME280;40715;55.752;37.884;2023-03-03T00:31:00;97527.13;;;27.64;21.40
54816;BME280;40715;55.752;37.884;2023-03-03T00:33:33;97511.44;;;27.59;21.18
54816;BME280;40715;55.752;37.884;2023-03-03T00:36:19;97516.31;;;27.64;21.10
54816;BME280;40715;55.752;37.884;2023-03-03T00:38:48;97521.06;;;27.62;21.72
54816;BME280;40715;55.752;37.884;2023-03-03T00:41:22;97511.28;;;27.61;21.63
54816;BME280;40715;55.752;37.884;2023-03-03T00:43:50;97506.91;;;27.60;21.58
54816;BME280;40715;55.752;37.884;2023-03-03T00:46:18;97505.03;;;27.60;21.76
54816;BME280;40715;55.752;37.884;2023-03-03T00:48:47;97502.13;;;27.62;21.65
54816;BME280;40715;55.752;37.884;2023-03-03T00:51:29;97494.91;;;27.69;21.74
54816;BME280;40715;55.752;37.884;2023-03-03T00:53:57;97493.38;;;27.60;21.43
54816;BME280;40715;55.752;37.884;2023-03-03T00:56:25;97491.31;;;27.62;21.51
54816;BME280;40715;55.752;37.884;2023-03-03T00:58:53;97476.75;;;27.63;21.58
54816;BME280;40715;55.752;37.884;2023-03-03T01:01:20;97474.88;;;27.63;21.64
54816;BME280;40715;55.752;37.884;2023-03-03T01:03:47;97480.47;;;27.62;21.26
54816;BME280;40715;55.752;37.884;2023-03-03T01:06:14;97475.94;;;27.62;21.41
54816;BME280;40715;55.752;37.884;2023-03-03T01:08:41;97473.03;;;27.64;21.28
54816;BME280;40715;55.752;37.884;2023-03-03T01:11:13;97483.84;;;27.64;21.63
54816;BME280;40715;55.752;37.884;2023-03-03T01:13:43;97474.69;;;27.65;21.60
54816;BME280;40715;55.752;37.884;2023-03-03T01:16:11;97479.06;;;27.66;21.25
54816;BME280;40715;55.752;37.884;2023-03-03T01:18:38;97470.75;;;27.67;21.22
54816;BME280;40715;55.752;37.884;2023-03-03T01:21:08;97470.56;;;27.69;21.40
54816;BME280;40715;55.752;37.884;2023-03-03T01:23:35;97465.78;;;27.71;21.38
54816;BME280;40715;55.752;37.884;2023-03-03T01:26:03;97466.81;;;27.70;21.25
54816;BME280;40715;55.752;37.884;2023-03-03T01:28:32;97462.44;;;27.69;21.26
54816;BME280;40715;55.752;37.884;2023-03-03T01:31:00;97458.06;;;27.68;21.14
54816;BME280;40715;55.752;37.884;2023-03-03T01:33:28;97454.53;;;27.67;21.13
54816;BME280;40715;55.752;37.884;2023-03-03T01:35:57;97462.22;;;27.70;21.18
54816;BME280;40715;55.752;37.884;2023-03-03T01:38:24;97461.41;;;27.70;21.37
54816;BME280;40715;55.752;37.884;2023-03-03T01:40:53;97461.63;;;27.68;21.53
54816;BME280;40715;55.752;37.884;2023-03-03T01:43:21;97452.00;;;27.66;21.50
54816;BME280;40715;55.752;37.884;2023-03-03T01:48:22;97450.59;;;27.70;21.32
54816;BME280;40715;55.752;37.884;2023-03-03T01:50:55;97448.97;;;27.76;21.25
54816;BME280;40715;55.752;37.884;2023-03-03T01:53:35;97460.63;;;27.76;21.44
54816;BME280;40715;55.752;37.884;2023-03-03T01:56:06;97443.97;;;27.72;21.50
54816;BME280;40715;55.752;37.884;2023-03-03T01:58:37;97444.78;;;27.73;21.50
54816;BME280;40715;55.752;37.884;2023-03-03T02:01:11;97450.38;;;27.71;21.34
54816;BME280;40715;55.752;37.884;2023-03-03T02:03:41;97449.38;;;27.72;21.34
54816;BME280;40715;55.752;37.884;2023-03-03T02:06:13;97446.66;;;27.72;21.10
54816;BME280;40715;55.752;37.884;2023-03-03T02:11:20;97441.06;;;27.74;20.99
54816;BME280;40715;55.752;37.884;2023-03-03T02:13:48;97439.38;;;27.73;21.29
54816;BME280;40715;55.752;37.884;2023-03-03T02:16:15;97444.97;;;27.71;21.60
54816;BME280;40715;55.752;37.884;2023-03-03T02:18:42;97429.59;;;27.72;21.39
54816;BME280;40715;55.752;37.884;2023-03-03T02:21:13;97421.28;;;27.73;21.38
54816;BME280;40715;55.752;37.884;2023-03-03T02:26:15;97422.13;;;27.74;21.59
54816;BME280;40715;55.752;37.884;2023-03-03T02:28:43;97415.69;;;27.75;21.36
54816;BME280;40715;55.752;37.884;2023-03-03T02:31:14;97405.69;;;27.76;21.34
54816;BME280;40715;55.752;37.884;2023-03-03T02:33:44;97406.50;;;27.76;21.12
54816;BME280;40715;55.752;37.884;2023-03-03T02:36:12;97407.56;;;27.75;21.57
54816;BME280;40715;55.752;37.884;2023-03-03T02:41:59;97389.25;;;27.77;21.91
54816;BME280;40715;55.752;37.884;2023-03-03T02:44:22;97391.13;;;27.77;21.63
54816;BME280;40715;55.752;37.884;2023-03-03T02:46:50;97380.72;;;27.73;21.95
54816;BME280;40715;55.752;37.884;2023-03-03T02:49:21;97379.03;;;27.72;21.92
54816;BME280;40715;55.752;37.884;2023-03-03T02:51:48;97372.97;;;27.70;21.66
54816;BME280;40715;55.752;37.884;2023-03-03T02:54:17;97377.16;;;27.73;21.84
54816;BME280;40715;55.752;37.884;2023-03-03T02:56:45;97378.00;;;27.73;22.07
54816;BME280;40715;55.752;37.884;2023-03-03T02:59:12;97369.84;;;27.67;22.36
54816;BME280;40715;55.752;37.884;2023-03-03T03:01:40;97379.44;;;27.76;22.35
54816;BME280;40715;55.752;37.884;2023-03-03T03:04:08;97385.72;;;27.77;22.42
54816;BME280;40715;55.752;37.884;2023-03-03T03:06:37;97394.47;;;27.79;22.54
54816;BME280;40715;55.752;37.884;2023-03-03T03:09:05;97371.16;;;27.78;22.38
54816;BME280;40715;55.752;37.884;2023-03-03T03:11:33;97376.56;;;27.78;22.37
54816;BME280;40715;55.752;37.884;2023-03-03T03:14:02;97382.16;;;27.76;22.38
54816;BME280;40715;55.752;37.884;2023-03-03T03:16:30;97366.72;;;27.70;22.37
54816;BME280;40715;55.752;37.884;2023-03-03T03:18:59;97379.28;;;27.78;22.80
54816;BME280;40715;55.752;37.884;2023-03-03T03:21:26;97378.44;;;27.77;22.79
54816;BME280;40715;55.752;37.884;2023-03-03T03:23:53;97380.31;;;27.77;22.60
54816;BME280;40715;55.752;37.884;2023-03-03T03:26:22;97380.31;;;27.77;22.50
54816;BME280;40715;55.752;37.884;2023-03-03T03:28:50;97382.16;;;27.76;22.69
54816;BME280;40715;55.752;37.884;2023-03-03T03:31:19;97386.53;;;27.77;22.79
54816;BME280;40715;55.752;37.884;2023-03-03T03:33:47;97376.13;;;27.74;23.01
54816;BME280;40715;55.752;37.884;2023-03-03T03:36:15;97376.56;;;27.78;23.15
54816;BME280;40715;55.752;37.884;2023-03-03T03:38:42;97374.91;;;27.77;23.18
54816;BME280;40715;55.752;37.884;2023-03-03T03:41:10;97381.34;;;27.76;23.06
54816;BME280;40715;55.752;37.884;2023-03-03T03:43:38;97374.03;;;27.76;23.08
54816;BME280;40715;55.752;37.884;2023-03-03T03:46:05;97360.09;;;27.72;22.97
54816;BME280;40715;55.752;37.884;2023-03-03T03:48:33;97365.09;;;27.76;22.92
54816;BME280;40715;55.752;37.884;2023-03-03T03:51:00;97367.81;;;27.76;22.93
54816;BME280;40715;55.752;37.884;2023-03-03T03:53:27;97367.59;;;27.77;22.93
54816;BME280;40715;55.752;37.884;2023-03-03T03:55:54;97359.91;;;27.74;23.25
54816;BME280;40715;55.752;37.884;2023-03-03T03:58:22;97362.66;;;27.81;23.29
54816;BME280;40715;55.752;37.884;2023-03-03T04:00:49;97357.22;;;27.81;23.03
54816;BME280;40715;55.752;37.884;2023-03-03T04:03:16;97352.44;;;27.83;22.91
54816;BME280;40715;55.752;37.884;2023-03-03T04:05:43;97347.00;;;27.76;22.69
54816;BME280;40715;55.752;37.884;2023-03-03T04:08:11;97353.66;;;27.73;23.13
54816;BME280;40715;55.752;37.884;2023-03-03T04:10:38;97355.31;;;27.75;23.33
54816;BME280;40715;55.752;37.884;2023-03-03T04:13:05;97343.88;;;27.72;23.36
54816;BME280;40715;55.752;37.884;2023-03-03T04:15:32;97341.97;;;27.73;23.22
54816;BME280;40715;55.752;37.884;2023-03-03T04:17:59;97346.56;;;27.72;23.38
54816;BME280;40715;55.752;37.884;2023-03-03T04:20:26;97336.97;;;27.70;23.41
54816;BME280;40715;55.752;37.884;2023-03-03T04:22:54;97340.09;;;27.67;23.03
54816;BME280;40715;55.752;37.884;2023-03-03T04:25:22;97334.03;;;27.65;23.40
54816;BME280;40715;55.752;37.884;2023-03-03T04:27:49;97334.88;;;27.65;23.05
54816;BME280;40715;55.752;37.884;2023-03-03T04:30:18;97336.72;;;27.65;22.92
54816;BME280;40715;55.752;37.884;2023-03-03T04:32:45;97332.78;;;27.61;22.97
54816;BME280;40715;55.752;37.884;2023-03-03T04:35:13;97335.09;;;27.64;22.91
54816;BME280;40715;55.752;37.884;2023-03-03T04:37:40;97330.44;;;27.58;22.85
54816;BME280;40715;55.752;37.884;2023-03-03T04:40:07;97324.00;;;27.59;23.24
54816;BME280;40715;55.752;37.884;2023-03-03T04:42:35;97316.06;;;27.50;22.95
54816;BME280;40715;55.752;37.884;2023-03-03T04:45:04;97327.13;;;27.55;23.00
54816;BME280;40715;55.752;37.884;2023-03-03T04:47:31;97325.03;;;27.58;23.22
54816;BME280;40715;55.752;37.884;2023-03-03T04:49:59;97326.09;;;27.57;22.84
54816;BME280;40715;55.752;37.884;2023-03-03T04:52:27;97324.63;;;27.54;23.27
54816;BME280;40715;55.752;37.884;2023-03-03T04:54:54;97341.47;;;27.56;23.31
54816;BME280;40715;55.752;37.884;2023-03-03T04:57:21;97329.63;;;27.57;23.14
54816;BME280;40715;55.752;37.884;2023-03-03T04:59:48;97339.63;;;27.57;23.07
54816;BME280;40715;55.752;37.884;2023-03-03T05:02:16;97342.72;;;27.53;23.16
54816;BME280;40715;55.752;37.884;2023-03-03T05:04:43;97337.31;;;27.53;23.27
54816;BME280;40715;55.752;37.884;2023-03-03T05:07:10;97325.41;;;27.48;23.43
54816;BME280;40715;55.752;37.884;2023-03-03T05:09:37;97331.84;;;27.47;23.25
54816;BME280;40715;55.752;37.884;2023-03-03T05:12:04;97335.84;;;27.51;23.19
54816;BME280;40715;55.752;37.884;2023-03-03T05:14:32;97335.63;;;27.52;23.29
54816;BME280;40715;55.752;37.884;2023-03-03T05:16:59;97340.19;;;27.52;23.09
54816;BME280;40715;55.752;37.884;2023-03-03T05:19:26;97340.03;;;27.53;23.15
54816;BME280;40715;55.752;37.884;2023-03-03T05:21:53;97341.88;;;27.53;23.10
54816;BME280;40715;55.752;37.884;2023-03-03T05:24:20;97338.34;;;27.52;22.61
54816;BME280;40715;55.752;37.884;2023-03-03T05:26:47;97336.66;;;27.51;22.73
54816;BME280;40715;55.752;37.884;2023-03-03T05:29:14;97341.25;;;27.51;22.82
54816;BME280;40715;55.752;37.884;2023-03-03T05:31:41;97337.47;;;27.52;22.63
54816;BME280;40715;55.752;37.884;2023-03-03T05:34:11;97337.69;;;27.50;23.08
54816;BME280;40715;55.752;37.884;2023-03-03T05:36:38;97345.78;;;27.50;23.08
54816;BME280;40715;55.752;37.884;2023-03-03T05:39:05;97345.44;;;27.53;23.27
54816;BME280;40715;55.752;37.884;2023-03-03T05:41:31;97348.97;;;27.54;23.09
54816;BME280;40715;55.752;37.884;2023-03-03T05:44:03;97343.75;;;27.52;23.55
54816;BME280;40715;55.752;37.884;2023-03-03T05:46:30;97351.66;;;27.54;23.29
54816;BME280;40715;55.752;37.884;2023-03-03T05:48:57;97348.13;;;27.53;23.29
54816;BME280;40715;55.752;37.884;2023-03-03T05:51:24;97347.28;;;27.53;23.27
54816;BME280;40715;55.752;37.884;2023-03-03T05:53:51;97341.66;;;27.54;23.50
54816;BME280;40715;55.752;37.884;2023-03-03T05:56:22;97334.59;;;27.53;24.09
54816;BME280;40715;55.752;37.884;2023-03-03T05:58:49;97338.75;;;27.56;24.99
54816;BME280;40715;55.752;37.884;2023-03-03T06:01:16;97343.75;;;27.59;25.95
54816;BME280;40715;55.752;37.884;2023-03-03T06:03:44;97345.25;;;27.62;26.00
54816;BME280;40715;55.752;37.884;2023-03-03T06:06:11;97366.69;;;27.63;26.74
54816;BME280;40715;55.752;37.884;2023-03-03T06:08:39;97357.34;;;27.66;27.04
54816;BME280;40715;55.752;37.884;2023-03-03T06:11:08;97351.72;;;27.67;27.02
54816;BME280;40715;55.752;37.884;2023-03-03T06:13:35;97351.72;;;27.67;27.29
54816;BME280;40715;55.752;37.884;2023-03-03T06:16:02;97352.59;;;27.68;26.96
54816;BME280;40715;55.752;37.884;2023-03-03T06:18:29;97357.78;;;27.69;27.09
54816;BME280;40715;55.752;37.884;2023-03-03T06:20:58;97355.91;;;27.70;27.20
54816;BME280;40715;55.752;37.884;2023-03-03T06:23:24;97364.69;;;27.72;27.02
54816;BME280;40715;55.752;37.884;2023-03-03T06:25:51;97364.69;;;27.72;27.21
54816;BME280;40715;55.752;37.884;2023-03-03T06:28:19;97363.41;;;27.68;27.13
54816;BME280;40715;55.752;37.884;2023-03-03T06:30:46;97355.72;;;27.71;27.05
54816;BME280;40715;55.752;37.884;2023-03-03T06:33:14;97360.91;;;27.73;26.88
54816;BME280;40715;55.752;37.884;2023-03-03T06:35:41;97350.09;;;27.73;26.55
54816;BME280;40715;55.752;37.884;2023-03-03T06:38:08;97347.59;;;27.71;26.40
54816;BME280;40715;55.752;37.884;2023-03-03T06:40:35;97358.00;;;27.75;26.38
54816;BME280;40715;55.752;37.884;2023-03-03T06:43:02;97349.69;;;27.76;26.17
54816;BME280;40715;55.752;37.884;2023-03-03T06:45:29;97350.09;;;27.73;26.53
54816;BME280;40715;55.752;37.884;2023-03-03T06:47:56;97355.75;;;27.78;26.83
54816;BME280;40715;55.752;37.884;2023-03-03T06:50:24;97353.28;;;27.83;26.43
54816;BME280;40715;55.752;37.884;2023-03-03T06:53:12;97354.34;;;27.89;26.25
54816;BME280;40715;55.752;37.884;2023-03-03T06:55:40;97360.59;;;27.89;26.88
54816;BME280;40715;55.752;37.884;2023-03-03T06:58:15;97355.19;;;27.89;26.65
54816;BME280;40715;55.752;37.884;2023-03-03T07:03:26;97352.91;;;27.93;26.84
54816;BME280;40715;55.752;37.884;2023-03-03T07:05:56;97350.84;;;27.95;26.95
54816;BME280;40715;55.752;37.884;2023-03-03T07:08:24;97352.91;;;27.93;27.28
54816;BME280;40715;55.752;37.884;2023-03-03T07:10:51;97347.13;;;27.96;27.41
54816;BME280;40715;55.752;37.884;2023-03-03T07:13:22;97351.94;;;28.01;26.74
54816;BME280;40715;55.752;37.884;2023-03-03T07:15:51;97357.97;;;28.03;27.13
54816;BME280;40715;55.752;37.884;2023-03-03T07:21:22;97366.97;;;28.10;26.40
54816;BME280;40715;55.752;37.884;2023-03-03T07:23:51;97364.00;;;27.98;26.18
54816;BME280;40715;55.752;37.884;2023-03-03T07:26:25;97357.75;;;27.98;26.18
54816;BME280;40715;55.752;37.884;2023-03-03T07:28:57;97370.25;;;27.99;26.58
54816;BME280;40715;55.752;37.884;2023-03-03T07:31:37;97361.72;;;28.02;26.32
54816;BME280;40715;55.752;37.884;2023-03-03T07:37:36;97362.38;;;28.04;26.15
54816;BME280;40715;55.752;37.884;2023-03-03T07:40:32;97366.56;;;28.13;26.01
54816;BME280;40715;55.752;37.884;2023-03-03T07:45:50;97364.03;;;28.05;25.72
54816;BME280;40715;55.752;37.884;2023-03-03T07:48:38;97355.13;;;28.11;25.47
54816;BME280;40715;55.752;37.884;2023-03-03T07:51:19;97364.25;;;28.10;25.97
54816;BME280;40715;55.752;37.884;2023-03-03T07:53:48;97371.09;;;28.06;25.83
54816;BME280;40715;55.752;37.884;2023-03-03T07:56:30;97367.63;;;28.12;25.67
54816;BME280;40715;55.752;37.884;2023-03-03T07:59:02;97368.81;;;28.03;26.11
54816;BME280;40715;55.752;37.884;2023-03-03T08:01:37;97368.81;;;28.03;25.92
54816;BME280;40715;55.752;37.884;2023-03-03T08:04:19;97374.47;;;28.08;25.80
54816;BME280;40715;55.752;37.884;2023-03-03T08:06:52;97374.22;;;28.03;25.86
54816;BME280;40715;55.752;37.884;2023-03-03T08:09:42;97374.91;;;28.18;25.69
54816;BME280;40715;55.752;37.884;2023-03-03T08:15:31;97381.00;;;28.27;25.81
54816;BME280;40715;55.752;37.884;2023-03-03T08:18:36;97369.06;;;28.08;25.83
54816;BME280;40715;55.752;37.884;2023-03-03T08:21:08;97373.59;;;28.07;25.28
54816;BME280;40715;55.752;37.884;2023-03-03T08:23:36;97369.59;;;27.97;25.43
54816;BME280;40715;55.752;37.884;2023-03-03T08:26:04;97380.28;;;28.05;25.57
54816;BME280;40715;55.752;37.884;2023-03-03T08:28:31;97387.78;;;28.10;25.52
54816;BME280;40715;55.752;37.884;2023-03-03T08:30:58;97385.09;;;28.10;25.18
54816;BME280;40715;55.752;37.884;2023-03-03T08:33:42;97381.34;;;28.11;25.15
54816;BME280;40715;55.752;37.884;2023-03-03T08:36:10;97389.47;;;28.11;25.56
54816;BME280;40715;55.752;37.884;2023-03-03T08:38:38;97386.13;;;28.09;25.64
54816;BME280;40715;55.752;37.884;2023-03-03T08:41:06;97400.31;;;28.11;25.38
54816;BME280;40715;55.752;37.884;2023-03-03T08:43:33;97396.53;;;28.12;25.15
54816;BME280;40715;55.752;37.884;2023-03-03T08:46:02;97393.00;;;28.11;25.38
54816;BME280;40715;55.752;37.884;2023-03-03T08:48:32;97399.25;;;28.12;25.12
54816;BME280;40715;55.752;37.884;2023-03-03T08:50:59;97396.16;;;28.15;25.40
54816;BME280;40715;55.752;37.884;2023-03-03T08:53:27;97400.09;;;28.12;25.29
54816;BME280;40715;55.752;37.884;2023-03-03T08:55:55;97400.72;;;28.14;25.03
54816;BME280;40715;55.752;37.884;2023-03-03T08:58:21;97405.31;;;28.14;25.07
54816;BME280;40715;55.752;37.884;2023-03-03T09:01:00;97397.38;;;28.12;24.94
54816;BME280;40715;55.752;37.884;2023-03-03T09:03:27;97402.81;;;28.12;24.64
54816;BME280;40715;55.752;37.884;2023-03-03T09:05:55;97410.94;;;28.12;25.03
54816;BME280;40715;55.752;37.884;2023-03-03T09:08:23;97404.44;;;28.13;24.93
54816;BME280;40715;55.752;37.884;2023-03-03T09:10:50;97402.81;;;28.12;24.74
54816;BME280;40715;55.752;37.884;2023-03-03T09:13:18;97403.84;;;28.11;24.55
54816;BME280;40715;55.752;37.884;2023-03-03T09:15:46;97403.63;;;28.13;24.79
54816;BME280;40715;55.752;37.884;2023-03-03T09:18:20;97413.44;;;28.14;24.76
54816;BME280;40715;55.752;37.884;2023-03-03T09:20:53;97402.41;;;28.15;25.08
54816;BME280;40715;55.752;37.884;2023-03-03T09:23:40;97394.13;;;28.30;24.61
54816;BME280;40715;55.752;37.884;2023-03-03T09:26:30;97403.50;;;28.34;24.29
54816;BME280;40715;55.752;37.884;2023-03-03T09:31:48;97402.44;;;28.29;24.56
54816;BME280;40715;55.752;37.884;2023-03-03T09:36:54;97410.34;;;28.23;24.36
54816;BME280;40715;55.752;37.884;2023-03-03T09:39:24;97407.88;;;28.29;24.61
54816;BME280;40715;55.752;37.884;2023-03-03T09:48:22;97407.72;;;28.50;24.34
54816;BME280;40715;55.752;37.884;2023-03-03T09:51:25;97409.00;;;28.48;24.20
54816;BME280;40715;55.752;37.884;2023-03-03T09:57:12;97402.50;;;28.49;24.19
54816;BME280;40715;55.752;37.884;2023-03-03T10:02:43;97406.94;;;28.56;24.13
54816;BME280;40715;55.752;37.884;2023-03-03T10:05:24;97394.84;;;28.52;24.01
54816;BME280;40715;55.752;37.884;2023-03-03T10:08:14;97396.91;;;28.50;24.21
54816;BME280;40715;55.752;37.884;2023-03-03T10:10:49;97403.16;;;28.51;23.92
54816;BME280;40715;55.752;37.884;2023-03-03T10:13:30;97394.63;;;28.54;23.66
54816;BME280;40715;55.752;37.884;2023-03-03T10:19:00;97388.81;;;28.57;24.12
54816;BME280;40715;55.752;37.884;2023-03-03T10:49:31;97405.47;;;28.54;24.50
54816;BME280;40715;55.752;37.884;2023-03-03T10:58:03;97401.69;;;28.48;24.59
54816;BME280;40715;55.752;37.884;2023-03-03T11:00:46;97408.78;;;28.49;24.49
54816;BME280;40715;55.752;37.884;2023-03-03T11:04:01;97407.56;;;28.58;24.24
54816;BME280;40715;55.752;37.884;2023-03-03T11:36:51;97416.91;;;28.49;24.46
54816;BME280;40715;55.752;37.884;2023-03-03T11:39:24;97415.44;;;28.47;24.53
54816;BME280;40715;55.752;37.884;2023-03-03T11:42:27;97422.97;;;28.58;24.15
54816;BME280;40715;55.752;37.884;2023-03-03T11:45:28;97413.56;;;28.47;23.86
54816;BME280;40715;55.752;37.884;2023-03-03T11:47:58;97409.56;;;28.43;24.24
54816;BME280;40715;55.752;37.884;2023-03-03T11:50:40;97420.22;;;29.06;23.60
54816;BME280;40715;55.752;37.884;2023-03-03T11:53:27;97416.47;;;28.46;24.49
54816;BME280;40715;55.752;37.884;2023-03-03T11:56:04;97425.63;;;28.38;24.10
54816;BME280;40715;55.752;37.884;2023-03-03T11:58:47;97425.00;;;28.42;23.91
54816;BME280;40715;55.752;37.884;2023-03-03T12:01:35;97423.97;;;28.44;24.31
54816;BME280;40715;55.752;37.884;2023-03-03T12:04:11;97418.53;;;28.37;24.22
54816;BME280;40715;55.752;37.884;2023-03-03T12:12:22;97422.75;;;28.46;24.23
54816;BME280;40715;55.752;37.884;2023-03-03T12:15:14;97423.53;;;28.40;23.97
54816;BME280;40715;55.752;37.884;2023-03-03T12:17:57;97414.78;;;28.38;24.15
54816;BME280;40715;55.752;37.884;2023-03-03T12:23:39;97421.88;;;28.39;24.46
54816;BME280;40715;55.752;37.884;2023-03-03T12:29:04;97421.06;;;28.45;24.00
54816;BME280;40715;55.752;37.884;2023-03-03T12:34:33;97424.75;;;28.37;24.08
54816;BME280;40715;55.752;37.884;2023-03-03T12:37:27;97425.00;;;28.42;24.01
54816;BME280;40715;55.752;37.884;2023-03-03T12:42:56;97416.25;;;28.47;24.22
54816;BME280;40715;55.752;37.884;2023-03-03T12:48:16;97427.06;;;28.34;24.13
54816;BME280;40715;55.752;37.884;2023-03-03T12:55:56;97423.97;;;28.44;24.15
54816;BME280;40715;55.752;37.884;2023-03-03T13:06:52;97434.81;;;28.50;24.61
54816;BME280;40715;55.752;37.884;2023-03-03T13:09:56;97422.16;;;28.57;24.65
54816;BME280;40715;55.752;37.884;2023-03-03T13:12:35;97435.47;;;28.52;24.77
54816;BME280;40715;55.752;37.884;2023-03-03T13:15:12;97438.16;;;28.52;24.71
54816;BME280;40715;55.752;37.884;2023-03-03T13:25:54;97437.81;;;28.62;24.45
54816;BME280;40715;55.752;37.884;2023-03-03T13:28:32;97437.34;;;28.58;24.55
54816;BME280;40715;55.752;37.884;2023-03-03T13:33:43;97442.13;;;28.50;24.35
54816;BME280;40715;55.752;37.884;2023-03-03T13:36:17;97437.72;;;28.49;24.40
54816;BME280;40715;55.752;37.884;2023-03-03T13:38:52;97436.91;;;28.48;24.16
54816;BME280;40715;55.752;37.884;2023-03-03T13:41:36;97432.75;;;28.52;24.06
54816;BME280;40715;55.752;37.884;2023-03-03T13:44:25;97432.34;;;28.55;24.07
54816;BME280;40715;55.752;37.884;2023-03-03T13:52:21;97438.53;;;28.42;23.98
54816;BME280;40715;55.752;37.884;2023-03-03T14:08:45;97425.59;;;28.31;23.92
54816;BME280;40715;55.752;37.884;2023-03-03T14:11:28;97414.75;;;28.31;23.62
54816;BME280;40715;55.752;37.884;2023-03-03T14:13:54;97422.25;;;28.29;23.70
54816;BME280;40715;55.752;37.884;2023-03-03T14:16:46;97424.34;;;28.34;23.88
54816;BME280;40715;55.752;37.884;2023-03-03T14:19:20;97422.84;;;28.24;23.80
54816;BME280;40715;55.752;37.884;2023-03-03T14:22:15;97425.59;;;28.31;23.85
54816;BME280;40715;55.752;37.884;2023-03-03T14:25:11;97420.56;;;28.28;23.74
54816;BME280;40715;55.752;37.884;2023-03-03T14:30:29;97425.59;;;28.31;23.86
54816;BME280;40715;55.752;37.884;2023-03-03T14:40:37;97433.66;;;28.18;23.67
54816;BME280;40715;55.752;37.884;2023-03-03T14:43:26;97437.84;;;28.27;23.92
54816;BME280;40715;55.752;37.884;2023-03-03T14:48:59;97438.88;;;28.19;23.89
54816;BME280;40715;55.752;37.884;2023-03-03T14:54:10;97433.84;;;28.16;23.92
54816;BME280;40715;55.752;37.884;2023-03-03T14:56:58;97430.75;;;28.19;23.87
54816;BME280;40715;55.752;37.884;2023-03-03T14:59:26;97439.47;;;28.15;24.19
54816;BME280;40715;55.752;37.884;2023-03-03T15:04:39;97445.31;;;28.18;23.37
54816;BME280;40715;55.752;37.884;2023-03-03T15:07:38;97456.88;;;28.40;23.40
54816;BME280;40715;55.752;37.884;2023-03-03T15:10:07;97449.69;;;28.19;23.69
54816;BME280;40715;55.752;37.884;2023-03-03T15:12:36;97449.91;;;28.18;23.75
54816;BME280;40715;55.752;37.884;2023-03-03T15:15:06;97448.00;;;28.18;23.80
54816;BME280;40715;55.752;37.884;2023-03-03T15:17:43;97448.84;;;28.19;24.07
54816;BME280;40715;55.752;37.884;2023-03-03T15:20:40;97461.59;;;28.25;23.67
54816;BME280;40715;55.752;37.884;2023-03-03T15:28:57;97456.34;;;28.17;23.77
54816;BME280;40715;55.752;37.884;2023-03-03T15:34:37;97467.38;;;28.15;23.97
54816;BME280;40715;55.752;37.884;2023-03-03T15:42:26;97465.13;;;28.26;23.73
54816;BME280;40715;55.752;37.884;2023-03-03T15:50:23;97462.34;;;28.12;23.56
54816;BME280;40715;55.752;37.884;2023-03-03T16:04:49;97461.50;;;28.12;23.79
54816;BME280;40715;55.752;37.884;2023-03-03T16:13:20;97470.69;;;28.17;23.58
54816;BME280;40715;55.752;37.884;2023-03-03T16:24:30;97459.41;;;28.07;23.94
54816;BME280;40715;55.752;37.884;2023-03-03T16:29:52;97466.91;;;28.12;23.58
54816;BME280;40715;55.752;37.884;2023-03-03T16:32:43;97472.94;;;28.07;23.74
54816;BME280;40715;55.752;37.884;2023-03-03T16:35:24;97471.06;;;28.07;23.59
54816;BME280;40715;55.752;37.884;2023-03-03T16:38:01;97467.28;;;28.02;23.45
54816;BME280;40715;55.752;37.884;2023-03-03T16:40:46;97472.69;;;28.02;23.33
54816;BME280;40715;55.752;37.884;2023-03-03T16:45:49;97453.31;;;27.98;23.35
54816;BME280;40715;55.752;37.884;2023-03-03T16:48:45;97461.50;;;28.12;23.35
54816;BME280;40715;55.752;37.884;2023-03-03T16:51:38;97470.06;;;28.15;23.34
54816;BME280;40715;55.752;37.884;2023-03-03T16:54:35;97465.69;;;28.14;23.32
54816;BME280;40715;55.752;37.884;2023-03-03T17:03:02;97461.91;;;28.09;23.32
54816;BME280;40715;55.752;37.884;2023-03-03T17:05:53;97462.16;;;28.14;23.27
54816;BME280;40715;55.752;37.884;2023-03-03T17:14:50;97454.19;;;28.05;23.11
54816;BME280;40715;55.752;37.884;2023-03-03T17:20:36;97453.59;;;28.10;23.19
54816;BME280;40715;55.752;37.884;2023-03-03T17:23:36;97452.09;;;28.01;23.05
54816;BME280;40715;55.752;37.884;2023-03-03T17:36:50;97459.41;;;28.07;23.00
54816;BME280;40715;55.752;37.884;2023-03-03T17:42:43;97454.25;;;28.12;23.26
54816;BME280;40715;55.752;37.884;2023-03-03T17:45:14;97450.41;;;28.00;23.18
54816;BME280;40715;55.752;37.884;2023-03-03T18:15:19;97450.66;;;28.05;24.02
54816;BME280;40715;55.752;37.884;2023-03-03T18:18:04;97448.16;;;28.03;23.99
54816;BME280;40715;55.752;37.884;2023-03-03T18:20:43;97453.72;;;28.02;23.71
54816;BME280;40715;55.752;37.884;2023-03-03T18:23:37;97447.28;;;28.03;23.99